Home   Weather   Spain   Bilbao   Past weeks
Flag for Spain

Past Weather in Bilbao, Vizcaya, Spain — Yesterday and Last 2 Weeks

Currently: 57 °F. Cloudy. (Weather station: Bilbao / Sondica, Spain). See more current weather

Past Weather in Bilbao — Graph

°F

Bilbao Temperature Yesterday

Maximum temperature yesterday: 77 °F (at 1:00 pm)
Minimum temperature yesterday: 52 °F (at 4:30 am)
Average temperature yesterday: 61 °F

High & Low Weather Summary for the Past Weeks

 TemperatureHumidityPressure
High88 °F (Apr 6, 5:00 pm)100% (Apr 2, 1:00 am)30.57 "Hg (Apr 2, 1:00 am)
Low43 °F (Apr 2, 3:00 am)17% (Apr 12, 1:30 pm)29.27 "Hg (Mar 31, 8:00 am)
Average62 °F62%30.05 "Hg
* Reported Mar 31 6:00 am — Apr 15 6:30 am, Bilbao. Weather by CustomWeather, © 2024

Note: Actual official high and low records may vary slightly from our data, if they occured in-between our weather recording intervals... More about our weather records

Bilbao Weather History for the Previous 24 Hours

Scroll right to see more
 ConditionsComfort  
Time TempWeatherWind HumidityBarometerVisibility
6:30 am
Mon, Apr 15
57 °FMostly cloudy.8 mph88%30.27 "HgN/A
6:00 am57 °FOvercast.10 mph88%30.27 "HgN/A
5:30 am57 °FMostly cloudy.12 mph88%30.27 "HgN/A
5:00 am59 °FOvercast.7 mph82%30.27 "HgN/A
4:30 am57 °FPassing clouds.5 mph88%30.27 "HgN/A
4:00 am57 °FPassing clouds.6 mph88%30.27 "HgN/A
3:30 am57 °FOvercast.8 mph88%30.27 "HgN/A
3:00 am57 °FOvercast.9 mph88%30.27 "HgN/A
2:30 am57 °FOvercast.10 mph88%30.27 "HgN/A
2:00 am57 °FOvercast.9 mph88%30.27 "HgN/A
1:30 am57 °FLow clouds.10 mph88%30.27 "HgN/A
1:00 am57 °FMostly cloudy.6 mph94%30.27 "HgN/A
12:30 am57 °FLow clouds.6 mph94%30.27 "HgN/A
12:00 am57 °FLow clouds.7 mph94%30.27 "HgN/A
11:30 pm
Sun, Apr 14
57 °FLow clouds.6 mph94%30.27 "Hg5 mi
11:00 pm59 °FLow clouds.8 mph88%30.27 "Hg5 mi
10:30 pm59 °FLow clouds.3 mph94%30.27 "Hg5 mi
9:30 pm57 °FLow clouds.5 mph100%30.24 "Hg4 mi
9:00 pm59 °FLow clouds.7 mph94%30.24 "Hg4 mi
8:30 pm57 °FFog.8 mph100%30.21 "Hg3 mi
8:00 pm59 °FFog.9 mph94%30.21 "Hg2 mi
7:30 pm59 °FFog.9 mph94%30.21 "Hg2 mi
7:13 pm59 °FBroken clouds.12 mph94%30.21 "Hg4 mi
6:30 pm63 °FPassing clouds.13 mph83%30.21 "HgN/A
6:00 pm64 °FPassing clouds.7 mph78%30.18 "HgN/A
5:30 pm63 °FPassing clouds.12 mph77%30.18 "HgN/A
5:00 pm63 °FScattered clouds.16 mph83%30.18 "HgN/A
4:30 pm63 °FPassing clouds.17 mph83%30.18 "HgN/A
4:00 pm66 °FPassing clouds.12 mph78%30.15 "HgN/A
3:30 pm70 °FPassing clouds.12 mph69%30.15 "HgN/A
3:00 pm72 °FPassing clouds.9 mph65%30.18 "HgN/A
2:30 pm73 °FPassing clouds.10 mph65%30.18 "HgN/A
2:00 pm75 °FPassing clouds.9 mph57%30.18 "HgN/A
1:30 pm75 °FSunny.2 mph54%30.21 "Hg10 mi
1:00 pm77 °FSunny.1 mph44%30.21 "Hg10 mi
12:30 pm75 °FSunny.2 mph44%30.24 "Hg10 mi
12:00 pm73 °FSunny.2 mph50%30.24 "Hg10 mi
11:30 am72 °FSunny.2 mph50%30.24 "Hg10 mi
11:00 am68 °FSunny.1 mph53%30.24 "Hg10 mi
10:30 am66 °FSunny.1 mph56%30.24 "Hg10 mi
10:00 am63 °FPassing clouds.3 mph68%30.27 "HgN/A
9:00 am55 °FPassing clouds.3 mph82%30.27 "HgN/A
8:30 am54 °FPassing clouds.3 mph88%30.27 "HgN/A
8:00 am52 °FSunny.5 mph88%30.27 "Hg10 mi
7:30 am54 °FPassing clouds.6 mph88%30.27 "HgN/A
7:00 am52 °FPassing clouds.3 mph88%30.27 "HgN/A
Weather by CustomWeather, © 2024

See weather overview